Time,TemperatureF,DewpointF,PressureIn,WindDirection,WindDirectionDegrees,WindSpeedMPH,WindSpeedGustMPH,Humidity,HourlyPrecipIn,Conditions,Clouds,dailyrainin,SoftwareType,DateUTC
2018-01-19 00:00:00,26.2,-8.4,29.77,WNW,290,9.6,11.6,21,0.00,,---,0.00,VWS V15.00,2018-01-19 05:00:00,
2018-01-19 00:05:00,26.2,-8.4,29.77,NW,316,8.3,12.5,21,0.00,,---,0.00,VWS V15.00,2018-01-19 05:05:00,
2018-01-19 00:10:00,26.2,-8.4,29.77,WNW,299,11.6,11.6,21,0.00,,---,0.00,VWS V15.00,2018-01-19 05:10:00,
2018-01-19 00:15:00,26.2,-8.4,29.77,NW,323,11.0,15.9,21,0.00,,---,0.00,VWS V15.00,2018-01-19 05:15:00,
2018-01-19 00:20:00,26.2,-8.4,29.77,WNW,303,11.2,13.9,21,0.00,,---,0.00,VWS V15.00,2018-01-19 05:20:00,
2018-01-19 00:25:00,26.2,-8.4,29.77,WNW,292,7.4,13.4,21,0.00,,---,0.00,VWS V15.00,2018-01-19 05:25:00,
2018-01-19 00:30:00,26.2,-8.4,29.77,WNW,282,6.7,8.7,21,0.00,,---,0.00,VWS V15.00,2018-01-19 05:30:00,
2018-01-19 00:35:00,26.2,-8.4,29.77,WSW,254,6.3,10.5,21,0.00,,---,0.00,VWS V15.00,2018-01-19 05:35:00,
2018-01-19 00:40:00,26.2,-8.4,29.77,WNW,300,10.1,11.6,21,0.00,,---,0.00,VWS V15.00,2018-01-19 05:40:00,
2018-01-19 00:45:00,26.2,-8.4,29.77,NW,313,8.7,10.1,21,0.00,,---,0.00,VWS V15.00,2018-01-19 05:45:00,
2018-01-19 00:50:00,26.2,-8.4,29.77,NW,308,11.2,11.2,21,0.00,,---,0.00,VWS V15.00,2018-01-19 05:50:00,
2018-01-19 00:55:00,26.1,-8.5,29.77,West,278,8.3,12.5,21,0.00,,---,0.00,VWS V15.00,2018-01-19 05:55:00,
2018-01-19 01:00:00,26.1,-8.5,29.77,WNW,294,7.8,11.0,21,0.00,,---,0.00,VWS V15.00,2018-01-19 06:00:00,
2018-01-19 01:05:00,26.1,-8.5,29.77,WNW,291,5.4,7.8,21,0.00,,---,0.00,VWS V15.00,2018-01-19 06:05:00,
2018-01-19 01:10:00,25.9,-8.7,29.77,WNW,288,6.9,6.9,21,0.00,,---,0.00,VWS V15.00,2018-01-19 06:10:00,
2018-01-19 01:15:00,25.9,-8.7,29.77,WNW,287,9.2,9.6,21,0.00,,---,0.00,VWS V15.00,2018-01-19 06:15:00,
2018-01-19 01:20:00,25.5,-8.0,29.77,NW,308,10.1,10.1,22,0.00,,---,0.00,VWS V15.00,2018-01-19 06:20:00,
2018-01-19 01:25:00,25.5,-8.0,29.77,WNW,300,5.8,5.8,22,0.00,,---,0.00,VWS V15.00,2018-01-19 06:25:00,
2018-01-19 01:30:00,25.5,-8.0,29.77,WNW,300,9.2,10.1,22,0.00,,---,0.00,VWS V15.00,2018-01-19 06:30:00,
2018-01-19 01:35:00,25.5,-8.0,29.77,West,273,7.8,9.6,22,0.00,,---,0.00,VWS V15.00,2018-01-19 06:35:00,
2018-01-19 01:40:00,25.5,-8.0,29.77,WNW,301,8.3,10.5,22,0.00,,---,0.00,VWS V15.00,2018-01-19 06:40:00,
2018-01-19 01:45:00,25.5,-8.0,29.77,NW,314,11.6,11.6,22,0.00,,---,0.00,VWS V15.00,2018-01-19 06:45:00,
2018-01-19 01:50:00,25.3,-8.2,29.77,WNW,303,11.2,11.2,22,0.00,,---,0.00,VWS V15.00,2018-01-19 06:50:00,
2018-01-19 01:55:00,25.3,-8.2,29.77,WNW,293,10.5,11.2,22,0.00,,---,0.00,VWS V15.00,2018-01-19 06:55:00,
2018-01-19 02:00:00,25.2,-8.3,29.77,WNW,298,12.1,12.1,22,0.00,,---,0.00,VWS V15.00,2018-01-19 07:00:00,
2018-01-19 02:05:00,25.2,-8.3,29.77,WNW,283,10.5,11.2,22,0.00,,---,0.00,VWS V15.00,2018-01-19 07:05:00,
2018-01-19 02:10:00,25.2,-8.3,29.77,NW,305,9.2,10.5,22,0.00,,---,0.00,VWS V15.00,2018-01-19 07:10:00,
2018-01-19 02:15:00,25.2,-8.3,29.80,NW,314,9.6,12.5,22,0.00,,---,0.00,VWS V15.00,2018-01-19 07:15:00,
2018-01-19 02:20:00,25.2,-8.3,29.80,NW,312,6.9,8.7,22,0.00,,---,0.00,VWS V15.00,2018-01-19 07:20:00,
2018-01-19 02:25:00,25.2,-8.3,29.80,NW,305,7.8,8.3,22,0.00,,---,0.00,VWS V15.00,2018-01-19 07:25:00,
2018-01-19 02:30:00,25.0,-8.5,29.80,NW,319,11.0,12.1,22,0.00,,---,0.00,VWS V15.00,2018-01-19 07:30:00,
2018-01-19 02:35:00,25.0,-8.5,29.80,West,278,6.9,8.7,22,0.00,,---,0.00,VWS V15.00,2018-01-19 07:35:00,
2018-01-19 02:40:00,25.0,-8.5,29.80,WNW,289,9.2,11.0,22,0.00,,---,0.00,VWS V15.00,2018-01-19 07:40:00,
2018-01-19 02:45:00,25.0,-8.5,29.80,WNW,288,11.6,11.6,22,0.00,,---,0.00,VWS V15.00,2018-01-19 07:45:00,
2018-01-19 02:50:00,25.0,-8.5,29.80,NW,318,9.2,10.5,22,0.00,,---,0.00,VWS V15.00,2018-01-19 07:50:00,
2018-01-19 02:55:00,25.2,-8.3,29.80,WNW,283,6.3,8.7,22,0.00,,---,0.00,VWS V15.00,2018-01-19 07:55:00,
2018-01-19 03:00:00,25.2,-8.3,29.80,NW,307,7.4,7.4,22,0.00,,---,0.00,VWS V15.00,2018-01-19 08:00:00,
2018-01-19 03:05:00,25.2,-8.3,29.80,WNW,286,7.4,8.7,22,0.00,,---,0.00,VWS V15.00,2018-01-19 08:05:00,
2018-01-19 03:10:00,25.2,-8.3,29.80,West,280,9.6,10.5,22,0.00,,---,0.00,VWS V15.00,2018-01-19 08:10:00,
2018-01-19 03:15:00,25.2,-8.3,29.80,WNW,290,6.3,9.2,22,0.00,,---,0.00,VWS V15.00,2018-01-19 08:15:00,
2018-01-19 03:20:00,25.2,-8.3,29.80,NW,309,6.7,9.6,22,0.00,,---,0.00,VWS V15.00,2018-01-19 08:20:00,
2018-01-19 03:25:00,25.2,-8.3,29.80,WNW,301,8.3,9.2,22,0.00,,---,0.00,VWS V15.00,2018-01-19 08:25:00,
2018-01-19 03:30:00,25.2,-8.3,29.80,WNW,289,6.9,7.4,22,0.00,,---,0.00,VWS V15.00,2018-01-19 08:30:00,
2018-01-19 03:35:00,25.2,-8.3,29.80,WNW,287,10.5,12.1,22,0.00,,---,0.00,VWS V15.00,2018-01-19 08:35:00,
2018-01-19 03:40:00,25.2,-8.3,29.80,WNW,297,7.4,7.4,22,0.00,,---,0.00,VWS V15.00,2018-01-19 08:40:00,
2018-01-19 03:45:00,25.2,-8.3,29.80,NW,309,7.8,9.6,22,0.00,,---,0.00,VWS V15.00,2018-01-19 08:45:00,
2018-01-19 03:50:00,25.0,-8.5,29.80,NW,314,10.5,10.5,22,0.00,,---,0.00,VWS V15.00,2018-01-19 08:50:00,
2018-01-19 03:55:00,24.8,-8.6,29.80,WNW,289,8.3,9.2,22,0.00,,---,0.00,VWS V15.00,2018-01-19 08:55:00,
2018-01-19 04:00:00,24.6,-8.8,29.80,WNW,301,5.4,7.4,22,0.00,,---,0.00,VWS V15.00,2018-01-19 09:00:00,
2018-01-19 04:05:00,24.4,-8.9,29.80,West,268,8.3,8.3,22,0.00,,---,0.00,VWS V15.00,2018-01-19 09:05:00,
2018-01-19 04:10:00,24.3,-9.1,29.80,WNW,285,7.4,7.4,22,0.00,,---,0.00,VWS V15.00,2018-01-19 09:10:00,
2018-01-19 04:15:00,23.9,-9.4,29.80,WNW,301,6.9,10.1,22,0.00,,---,0.00,VWS V15.00,2018-01-19 09:15:00,
2018-01-19 04:20:00,23.5,-9.7,29.80,WNW,296,7.4,7.4,22,0.00,,---,0.00,VWS V15.00,2018-01-19 09:20:00,
2018-01-19 04:25:00,23.4,-9.9,29.80,WNW,300,5.8,6.7,22,0.00,,---,0.00,VWS V15.00,2018-01-19 09:25:00,
2018-01-19 04:30:00,23.2,-10.0,29.80,WNW,303,7.8,7.8,22,0.00,,---,0.00,VWS V15.00,2018-01-19 09:30:00,
2018-01-19 04:35:00,23.0,-10.2,29.80,WNW,303,7.8,7.8,22,0.00,,---,0.00,VWS V15.00,2018-01-19 09:35:00,
2018-01-19 04:40:00,23.0,-10.2,29.80,NW,308,7.4,7.4,22,0.00,,---,0.00,VWS V15.00,2018-01-19 09:40:00,
2018-01-19 04:45:00,22.8,-10.3,29.80,WNW,292,6.7,9.2,22,0.00,,---,0.00,VWS V15.00,2018-01-19 09:45:00,
2018-01-19 04:50:00,22.8,-10.3,29.80,WNW,283,8.3,8.3,22,0.00,,---,0.00,VWS V15.00,2018-01-19 09:50:00,
2018-01-19 04:55:00,22.6,-10.5,29.80,WNW,289,7.4,8.3,22,0.00,,---,0.00,VWS V15.00,2018-01-19 09:55:00,
2018-01-19 05:00:00,22.5,-10.6,29.80,WNW,290,9.2,10.5,22,0.00,,---,0.00,VWS V15.00,2018-01-19 10:00:00,
2018-01-19 05:05:00,22.5,-10.6,29.80,West,271,8.3,8.3,22,0.00,,---,0.00,VWS V15.00,2018-01-19 10:05:00,
2018-01-19 05:10:00,22.3,-10.8,29.80,WNW,296,7.4,8.7,22,0.00,,---,0.00,VWS V15.00,2018-01-19 10:10:00,
2018-01-19 05:15:00,22.1,-10.9,29.80,WNW,290,6.7,6.9,22,0.00,,---,0.00,VWS V15.00,2018-01-19 10:15:00,
2018-01-19 05:20:00,22.1,-10.9,29.80,WNW,297,6.9,7.8,22,0.00,,---,0.00,VWS V15.00,2018-01-19 10:20:00,
2018-01-19 05:25:00,22.3,-10.8,29.80,WNW,288,7.8,7.8,22,0.00,,---,0.00,VWS V15.00,2018-01-19 10:25:00,
2018-01-19 05:30:00,22.1,-10.9,29.80,WNW,284,7.4,7.4,22,0.00,,---,0.00,VWS V15.00,2018-01-19 10:30:00,
2018-01-19 05:35:00,22.3,-10.8,29.80,WNW,283,10.1,10.1,22,0.00,,---,0.00,VWS V15.00,2018-01-19 10:35:00,
2018-01-19 05:40:00,22.5,-10.6,29.80,WNW,289,5.8,9.6,22,0.00,,---,0.00,VWS V15.00,2018-01-19 10:40:00,
2018-01-19 05:45:00,22.5,-10.6,29.83,WNW,289,6.7,7.4,22,0.00,,---,0.00,VWS V15.00,2018-01-19 10:45:00,
2018-01-19 05:50:00,22.3,-10.8,29.83,West,276,8.3,10.1,22,0.00,,---,0.00,VWS V15.00,2018-01-19 10:50:00,
2018-01-19 05:55:00,22.3,-10.8,29.83,WNW,283,6.7,7.8,22,0.00,,---,0.00,VWS V15.00,2018-01-19 10:55:00,
2018-01-19 06:00:00,22.1,-10.9,29.83,West,259,6.9,8.3,22,0.00,,---,0.00,VWS V15.00,2018-01-19 11:00:00,
2018-01-19 06:05:00,22.1,-10.9,29.83,West,272,7.4,7.4,22,0.00,,---,0.00,VWS V15.00,2018-01-19 11:05:00,
2018-01-19 06:10:00,22.1,-10.9,29.83,West,279,8.7,8.7,22,0.00,,---,0.00,VWS V15.00,2018-01-19 11:10:00,
2018-01-19 06:15:00,22.1,-10.9,29.83,West,280,8.3,8.3,22,0.00,,---,0.00,VWS V15.00,2018-01-19 11:15:00,
2018-01-19 06:20:00,22.1,-10.9,29.83,West,271,4.0,4.5,22,0.00,,---,0.00,VWS V15.00,2018-01-19 11:20:00,
2018-01-19 06:25:00,22.1,-10.9,29.83,West,259,7.8,7.8,22,0.00,,---,0.00,VWS V15.00,2018-01-19 11:25:00,
2018-01-19 06:30:00,22.3,-10.8,29.83,West,260,7.4,7.4,22,0.00,,---,0.00,VWS V15.00,2018-01-19 11:30:00,
2018-01-19 06:35:00,22.3,-10.8,29.83,West,264,9.2,9.6,22,0.00,,---,0.00,VWS V15.00,2018-01-19 11:35:00,
2018-01-19 06:40:00,22.3,-10.8,29.83,WSW,258,6.7,9.6,22,0.00,,---,0.00,VWS V15.00,2018-01-19 11:40:00,
2018-01-19 06:45:00,22.1,-10.9,29.83,West,276,5.4,7.4,22,0.00,,---,0.00,VWS V15.00,2018-01-19 11:45:00,
2018-01-19 06:50:00,22.1,-10.9,29.83,WSW,258,4.9,6.7,22,0.00,,---,0.00,VWS V15.00,2018-01-19 11:50:00,
2018-01-19 06:55:00,22.1,-10.9,29.83,West,264,5.8,7.4,22,0.00,,---,0.00,VWS V15.00,2018-01-19 11:55:00,
2018-01-19 07:00:00,21.9,-11.1,29.83,West,263,4.9,7.4,22,0.00,,---,0.00,VWS V15.00,2018-01-19 12:00:00,
2018-01-19 07:05:00,21.9,-11.1,29.83,West,263,6.9,8.3,22,0.00,,---,0.00,VWS V15.00,2018-01-19 12:05:00,
2018-01-19 07:10:00,22.3,-10.8,29.83,West,261,4.5,6.7,22,0.00,,---,0.00,VWS V15.00,2018-01-19 12:10:00,
2018-01-19 07:15:00,21.9,-11.1,29.83,WSW,247,7.4,7.8,22,0.00,,---,0.00,VWS V15.00,2018-01-19 12:15:00,
2018-01-19 07:19:00,21.9,-11.1,29.83,NW,308,4.0,5.8,22,0.00,,---,0.00,VWS V15.00,2018-01-19 12:19:00,
2018-01-19 07:24:00,21.9,-11.1,29.83,West,269,4.5,6.3,22,0.00,,---,0.00,VWS V15.00,2018-01-19 12:24:00,
2018-01-19 07:29:00,21.9,-11.1,29.83,West,264,4.5,6.3,22,0.00,,---,0.00,VWS V15.00,2018-01-19 12:29:00,
2018-01-19 07:34:00,22.1,-10.9,29.83,West,263,5.4,6.7,22,0.00,,---,0.00,VWS V15.00,2018-01-19 12:34:00,
2018-01-19 07:39:00,22.5,-10.6,29.83,West,277,4.9,7.8,22,0.00,,---,0.00,VWS V15.00,2018-01-19 12:39:00,
2018-01-19 07:44:00,22.6,-10.5,29.83,WNW,282,7.8,9.2,22,0.00,,---,0.00,VWS V15.00,2018-01-19 12:44:00,
2018-01-19 07:49:00,22.8,-10.3,29.83,WNW,291,2.7,6.3,22,0.00,,---,0.00,VWS V15.00,2018-01-19 12:49:00,
2018-01-19 07:54:00,23.2,-10.0,29.83,WNW,284,6.7,8.7,22,0.00,,---,0.00,VWS V15.00,2018-01-19 12:54:00,
2018-01-19 07:59:00,23.4,-9.9,29.83,NW,309,7.8,9.2,22,0.00,,---,0.00,VWS V15.00,2018-01-19 12:59:00,
2018-01-19 08:04:00,23.7,-9.6,29.83,West,281,5.8,7.8,22,0.00,,---,0.00,VWS V15.00,2018-01-19 13:04:00,
2018-01-19 08:09:00,23.9,-9.4,29.83,WNW,284,5.8,11.2,22,0.00,,---,0.00,VWS V15.00,2018-01-19 13:09:00,
2018-01-19 08:14:00,23.9,-9.4,29.83,West,265,5.8,11.0,22,0.00,,---,0.00,VWS V15.00,2018-01-19 13:14:00,
2018-01-19 08:19:00,23.9,-9.4,29.83,West,269,8.3,11.6,22,0.00,,---,0.00,VWS V15.00,2018-01-19 13:19:00,
2018-01-19 08:24:00,24.3,-9.1,29.83,NW,305,9.2,11.2,22,0.00,,---,0.00,VWS V15.00,2018-01-19 13:24:00,
2018-01-19 08:29:00,24.4,-8.9,29.85,WNW,286,6.7,10.1,22,0.00,,---,0.00,VWS V15.00,2018-01-19 13:29:00,
2018-01-19 08:34:00,24.8,-8.6,29.85,WNW,282,9.6,10.1,22,0.00,,---,0.00,VWS V15.00,2018-01-19 13:34:00,
2018-01-19 08:39:00,25.2,-8.3,29.85,NW,311,11.6,11.6,22,0.00,,---,0.00,VWS V15.00,2018-01-19 13:39:00,
2018-01-19 08:44:00,25.3,-8.2,29.85,NW,308,7.8,8.3,22,0.00,,---,0.00,VWS V15.00,2018-01-19 13:44:00,
2018-01-19 08:49:00,25.5,-8.0,29.85,WNW,293,7.8,10.5,22,0.00,,---,0.00,VWS V15.00,2018-01-19 13:49:00,
2018-01-19 08:54:00,26.2,-8.4,29.85,NW,307,6.9,8.3,21,0.00,,---,0.00,VWS V15.00,2018-01-19 13:54:00,
2018-01-19 08:59:00,26.2,-8.4,29.85,WNW,293,7.4,10.1,21,0.00,,---,0.00,VWS V15.00,2018-01-19 13:59:00,
2018-01-19 09:04:00,26.6,-8.1,29.85,WNW,296,7.8,9.6,21,0.00,,---,0.00,VWS V15.00,2018-01-19 14:04:00,
2018-01-19 09:09:00,26.2,-8.4,29.85,West,271,8.3,12.1,21,0.00,,---,0.00,VWS V15.00,2018-01-19 14:09:00,
2018-01-19 09:14:00,26.4,-8.2,29.85,WNW,297,8.7,11.0,21,0.00,,---,0.00,VWS V15.00,2018-01-19 14:14:00,
2018-01-19 09:19:00,27.0,-7.8,29.85,WSW,246,6.3,9.2,21,0.00,,---,0.00,VWS V15.00,2018-01-19 14:19:00,
2018-01-19 09:24:00,27.7,-7.2,29.85,WSW,255,7.8,7.8,21,0.00,,---,0.00,VWS V15.00,2018-01-19 14:24:00,
2018-01-19 09:29:00,27.9,-7.0,29.85,West,274,10.1,10.5,21,0.00,,---,0.00,VWS V15.00,2018-01-19 14:29:00,
2018-01-19 09:34:00,27.9,-7.0,29.85,West,266,4.5,5.8,21,0.00,,---,0.00,VWS V15.00,2018-01-19 14:34:00,
2018-01-19 09:39:00,28.4,-6.5,29.85,West,268,7.8,8.7,21,0.00,,---,0.00,VWS V15.00,2018-01-19 14:39:00,
2018-01-19 09:44:00,28.8,-6.2,29.85,WSW,252,7.4,7.4,21,0.00,,---,0.00,VWS V15.00,2018-01-19 14:44:00,
2018-01-19 09:49:00,28.8,-6.2,29.85,West,273,9.2,10.1,21,0.00,,---,0.00,VWS V15.00,2018-01-19 14:49:00,
2018-01-19 09:54:00,28.8,-6.2,29.85,West,273,7.8,12.1,21,0.00,,---,0.00,VWS V15.00,2018-01-19 14:54:00,
2018-01-19 09:59:00,28.9,-6.1,29.85,WSW,254,10.1,11.0,21,0.00,,---,0.00,VWS V15.00,2018-01-19 14:59:00,
2018-01-19 10:04:00,29.3,-6.8,29.85,WSW,246,7.4,7.4,20,0.00,,---,0.00,VWS V15.00,2018-01-19 15:04:00,
2018-01-19 10:09:00,29.7,-6.5,29.85,WSW,252,10.1,11.6,20,0.00,,---,0.00,VWS V15.00,2018-01-19 15:09:00,
2018-01-19 10:14:00,29.8,-6.3,29.85,West,267,7.8,9.2,20,0.00,,---,0.00,VWS V15.00,2018-01-19 15:14:00,
2018-01-19 10:19:00,30.2,-6.0,29.85,WSW,246,7.4,8.3,20,0.00,,---,0.00,VWS V15.00,2018-01-19 15:19:00,
2018-01-19 10:24:00,30.6,-5.7,29.85,West,270,4.9,6.9,20,0.00,,---,0.00,VWS V15.00,2018-01-19 15:24:00,
2018-01-19 10:29:00,30.6,-5.7,29.85,WSW,245,9.6,10.5,20,0.00,,---,0.00,VWS V15.00,2018-01-19 15:29:00,
2018-01-19 10:34:00,30.6,-5.7,29.85,West,276,7.8,7.8,20,0.00,,---,0.00,VWS V15.00,2018-01-19 15:34:00,
2018-01-19 10:39:00,30.6,-5.7,29.85,West,265,6.3,8.7,20,0.00,,---,0.00,VWS V15.00,2018-01-19 15:39:00,
2018-01-19 10:44:00,31.1,-5.3,29.85,West,261,6.9,6.9,20,0.00,,---,0.00,VWS V15.00,2018-01-19 15:44:00,
2018-01-19 10:49:00,30.9,-5.4,29.85,WNW,285,6.3,6.3,20,0.00,,---,0.00,VWS V15.00,2018-01-19 15:49:00,
2018-01-19 10:54:00,31.3,-5.1,29.85,West,275,7.8,7.8,20,0.00,,---,0.00,VWS V15.00,2018-01-19 15:54:00,
2018-01-19 10:59:00,31.3,-5.1,29.83,WSW,252,8.7,11.0,20,0.00,,---,0.00,VWS V15.00,2018-01-19 15:59:00,
2018-01-19 11:04:00,30.9,-5.4,29.83,West,265,6.9,8.3,20,0.00,,---,0.00,VWS V15.00,2018-01-19 16:04:00,
2018-01-19 11:09:00,31.1,-5.3,29.83,WSW,254,7.4,9.6,20,0.00,,---,0.00,VWS V15.00,2018-01-19 16:09:00,
2018-01-19 11:14:00,31.5,-5.0,29.83,WSW,248,7.4,7.4,20,0.00,,---,0.00,VWS V15.00,2018-01-19 16:14:00,
2018-01-19 11:19:00,31.6,-4.8,29.83,WSW,258,6.9,9.2,20,0.00,,---,0.00,VWS V15.00,2018-01-19 16:19:00,
2018-01-19 11:24:00,31.3,-5.1,29.83,WNW,291,7.4,8.3,20,0.00,,---,0.00,VWS V15.00,2018-01-19 16:24:00,
2018-01-19 11:29:00,31.3,-5.1,29.83,WSW,253,6.7,11.6,20,0.00,,---,0.00,VWS V15.00,2018-01-19 16:29:00,
2018-01-19 11:34:00,31.6,-4.8,29.83,WSW,243,8.3,8.3,20,0.00,,---,0.00,VWS V15.00,2018-01-19 16:34:00,
2018-01-19 11:39:00,32.0,-4.5,29.83,West,277,6.9,6.9,20,0.00,,---,0.00,VWS V15.00,2018-01-19 16:39:00,
2018-01-19 11:44:00,32.4,-4.2,29.80,West,276,4.9,4.9,20,0.00,,---,0.00,VWS V15.00,2018-01-19 16:44:00,
2018-01-19 11:49:00,33.8,-3.0,29.80,West,273,7.8,9.2,20,0.00,,---,0.00,VWS V15.00,2018-01-19 16:49:00,
2018-01-19 11:54:00,33.1,-3.6,29.80,SSE,165,4.5,6.3,20,0.00,,---,0.00,VWS V15.00,2018-01-19 16:54:00,
2018-01-19 11:59:00,33.1,-3.6,29.80,West,272,5.4,6.3,20,0.00,,---,0.00,VWS V15.00,2018-01-19 16:59:00,
2018-01-19 12:04:00,33.1,-3.6,29.80,WNW,300,7.4,7.8,20,0.00,,---,0.00,VWS V15.00,2018-01-19 17:04:00,
2018-01-19 12:09:00,33.3,-3.5,29.80,West,274,6.3,7.4,20,0.00,,---,0.00,VWS V15.00,2018-01-19 17:09:00,
2018-01-19 12:14:00,33.1,-3.6,29.80,SW,228,6.3,7.4,20,0.00,,---,0.00,VWS V15.00,2018-01-19 17:14:00,
2018-01-19 12:19:00,33.4,-3.3,29.80,West,259,5.8,6.3,20,0.00,,---,0.00,VWS V15.00,2018-01-19 17:19:00,
2018-01-19 12:24:00,33.3,-3.5,29.80,SW,235,6.3,7.4,20,0.00,,---,0.00,VWS V15.00,2018-01-19 17:24:00,
2018-01-19 12:29:00,33.6,-3.2,29.80,West,262,4.9,5.4,20,0.00,,---,0.00,VWS V15.00,2018-01-19 17:29:00,
2018-01-19 12:34:00,34.0,-2.9,29.80,WSW,252,5.4,6.7,20,0.00,,---,0.00,VWS V15.00,2018-01-19 17:34:00,
2018-01-19 12:39:00,34.2,-2.7,29.80,WSW,242,0.0,0.0,20,0.00,,---,0.00,VWS V15.00,2018-01-19 17:39:00,
2018-01-19 12:44:00,34.0,-2.9,29.77,NW,305,6.3,6.3,20,0.00,,---,0.00,VWS V15.00,2018-01-19 17:44:00,
2018-01-19 12:49:00,34.0,-2.9,29.77,WSW,239,5.8,6.7,20,0.00,,---,0.00,VWS V15.00,2018-01-19 17:49:00,
2018-01-19 12:54:00,33.6,-3.2,29.77,WNW,291,6.7,6.7,20,0.00,,---,0.00,VWS V15.00,2018-01-19 17:54:00,
2018-01-19 12:59:00,33.4,-3.3,29.77,WSW,247,4.0,4.5,20,0.00,,---,0.00,VWS V15.00,2018-01-19 17:59:00,